Time;durP1;ratioP1;P1;durP2;ratioP2;P2;SDS_P1;SDS_P2;PMS_P1;PMS_P2;Temp;Humidity;BMP_temperature;BMP_pressure;BME280_temperature;BME280_humidity;BME280_pressure;Samples;Min_cycle;Max_cycle;Signal;HPM_P1;HPM_P2
2021/12/05 00:19:56;;;;;;;19.02;11.48;;;;;;;;;;772610;180;919005;-66
2021/12/05 00:21:59;;;;;;;18.93;12.63;;;;;;;;;;773034;180;919533;-65
2021/12/05 00:24:18;;;;;;;15.67;11.00;;;;;;;;;;765831;180;919440;-65
2021/12/05 00:26:46;;;;;;;23.37;12.33;;;;;;;;;;766288;180;924371;-66
2021/12/05 00:29:16;;;;;;;20.87;11.53;;;;;;;;;;775802;180;919834;-65
2021/12/05 00:31:49;;;;;;;22.00;12.17;;;;;;;;;;770717;180;919546;-65
2021/12/05 00:34:22;;;;;;;18.30;12.43;;;;;;;;;;769754;180;929683;-66
2021/12/05 00:39:37;;;;;;;20.50;13.00;;;;;;;;;;772119;181;912107;-65
2021/12/05 00:42:05;;;;;;;21.50;12.67;;;;;;;;;;767085;181;919489;-65
2021/12/05 00:47:29;;;;;;;23.65;16.00;;;;;;;;;;754080;181;919488;-65
2021/12/05 00:52:43;;;;;;;24.17;15.10;;;;;;;;;;763969;180;918564;-65
2021/12/05 00:55:09;;;;;;;24.03;15.93;;;;;;;;;;747001;183;919392;-66
2021/12/05 00:57:33;;;;;;;24.10;14.60;;;;;;;;;;763214;180;918932;-67
2021/12/05 01:10:36;;;;;;;27.77;17.00;;;;;;;;;;761497;180;919116;-65
2021/12/05 01:13:24;;;;;;;24.58;15.43;;;;;;;;;;768622;179;918408;-65
2021/12/05 01:15:12;;;;;;;26.33;14.87;;;;;;;;;;764266;180;1059213;-65
2021/12/05 01:17:44;;;;;;;22.90;16.73;;;;;;;;;;764889;181;918626;-65
2021/12/05 01:20:06;;;;;;;23.13;16.90;;;;;;;;;;768628;180;919423;-64
2021/12/05 01:22:35;;;;;;;34.87;18.57;;;;;;;;;;769598;179;919888;-65
2021/12/05 01:25:15;;;;;;;22.97;15.20;;;;;;;;;;774494;180;919363;-64
2021/12/05 01:27:39;;;;;;;25.93;15.63;;;;;;;;;;770599;180;919481;-65
2021/12/05 01:30:06;;;;;;;22.60;15.53;;;;;;;;;;767959;180;920961;-65
2021/12/05 01:32:41;;;;;;;30.97;18.70;;;;;;;;;;769737;180;918475;-65
2021/12/05 01:35:06;;;;;;;29.57;17.33;;;;;;;;;;774417;179;918419;-65
2021/12/05 01:37:38;;;;;;;25.50;16.20;;;;;;;;;;762756;180;1021481;-66
2021/12/05 01:40:18;;;;;;;24.17;16.00;;;;;;;;;;757802;180;919435;-66
2021/12/05 01:43:04;;;;;;;26.40;17.13;;;;;;;;;;770058;181;918698;-66
2021/12/05 01:45:28;;;;;;;25.90;17.45;;;;;;;;;;764473;182;927812;-65
2021/12/05 01:50:43;;;;;;;26.33;15.93;;;;;;;;;;754702;183;919636;-65
2021/12/05 01:53:06;;;;;;;23.35;16.27;;;;;;;;;;756104;183;1021712;-66
2021/12/05 01:55:43;;;;;;;27.10;17.57;;;;;;;;;;764774;180;918885;-65
2021/12/05 02:08:44;;;;;;;32.63;20.03;;;;;;;;;;768027;180;989970;-66
2021/12/05 02:10:59;;;;;;;29.57;18.43;;;;;;;;;;752838;183;919673;-66
2021/12/05 02:31:19;;;;;;;28.90;17.63;;;;;;;;;;768917;180;920247;-66
2021/12/05 02:41:37;;;;;;;28.10;17.90;;;;;;;;;;759690;183;919098;-66
2021/12/05 02:44:03;;;;;;;29.07;17.67;;;;;;;;;;759653;183;921019;-66
2021/12/05 02:46:26;;;;;;;28.50;18.03;;;;;;;;;;756748;182;921208;-67
2021/12/05 02:48:51;;;;;;;33.70;19.27;;;;;;;;;;767477;180;919072;-66
2021/12/05 02:51:17;;;;;;;32.23;18.87;;;;;;;;;;768545;180;915745;-66
2021/12/05 02:53:48;;;;;;;30.17;19.00;;;;;;;;;;769959;180;916287;-66
2021/12/05 02:56:10;;;;;;;29.57;17.00;;;;;;;;;;770871;180;919722;-65
2021/12/05 02:58:44;;;;;;;28.70;17.60;;;;;;;;;;766856;180;919564;-66
2021/12/05 03:01:10;;;;;;;30.40;18.70;;;;;;;;;;758433;183;919989;-66
2021/12/05 03:03:32;;;;;;;26.40;16.83;;;;;;;;;;764603;181;919465;-65
2021/12/05 03:06:00;;;;;;;26.63;17.87;;;;;;;;;;772498;180;918692;-66
2021/12/05 03:08:22;;;;;;;28.37;16.60;;;;;;;;;;766491;180;919277;-66
2021/12/05 03:10:48;;;;;;;24.43;16.90;;;;;;;;;;763770;180;919506;-66
2021/12/05 03:13:14;;;;;;;28.07;17.97;;;;;;;;;;774148;181;919294;-66
2021/12/05 03:15:40;;;;;;;25.87;17.40;;;;;;;;;;761600;180;918983;-66
2021/12/05 03:18:05;;;;;;;27.00;15.97;;;;;;;;;;768235;180;919702;-66
2021/12/05 03:20:31;;;;;;;27.07;16.37;;;;;;;;;;761407;180;1021959;-66
2021/12/05 03:22:57;;;;;;;25.60;16.50;;;;;;;;;;772710;180;919108;-66
2021/12/05 03:25:23;;;;;;;26.25;17.05;;;;;;;;;;763208;180;919964;-66
2021/12/05 03:27:49;;;;;;;28.50;17.83;;;;;;;;;;767478;180;919535;-66
2021/12/05 03:30:17;;;;;;;35.77;17.90;;;;;;;;;;775015;180;918655;-66
2021/12/05 03:32:41;;;;;;;26.57;16.03;;;;;;;;;;766149;180;919643;-66
2021/12/05 03:35:07;;;;;;;24.57;17.27;;;;;;;;;;770153;180;926500;-66
2021/12/05 03:37:33;;;;;;;28.17;19.87;;;;;;;;;;770015;180;919099;-67
2021/12/05 03:39:59;;;;;;;28.67;19.17;;;;;;;;;;770272;180;919666;-66
2021/12/05 03:42:25;;;;;;;31.83;18.93;;;;;;;;;;771542;180;925325;-67
2021/12/05 03:44:50;;;;;;;30.97;19.73;;;;;;;;;;766294;179;919639;-65
2021/12/05 03:47:16;;;;;;;29.98;19.20;;;;;;;;;;764392;180;918481;-67
2021/12/05 03:49:42;;;;;;;27.30;16.10;;;;;;;;;;763943;180;921063;-66
2021/12/05 03:52:09;;;;;;;30.30;17.27;;;;;;;;;;770873;180;919219;-66
2021/12/05 03:54:35;;;;;;;22.53;16.20;;;;;;;;;;773546;180;920064;-65
2021/12/05 03:57:02;;;;;;;21.57;14.43;;;;;;;;;;771237;180;916791;-66
2021/12/05 03:59:28;;;;;;;22.47;14.87;;;;;;;;;;770109;180;915767;-66
2021/12/05 04:01:52;;;;;;;21.57;14.97;;;;;;;;;;776127;180;916337;-66
2021/12/05 04:04:18;;;;;;;28.50;16.63;;;;;;;;;;764536;180;920152;-66
2021/12/05 04:06:44;;;;;;;23.48;15.52;;;;;;;;;;764648;180;919139;-66
2021/12/05 04:09:10;;;;;;;30.00;17.30;;;;;;;;;;771439;179;919914;-66
2021/12/05 04:11:36;;;;;;;29.17;19.20;;;;;;;;;;767839;183;1022228;-67
2021/12/05 04:14:01;;;;;;;32.77;20.33;;;;;;;;;;767071;179;919547;-66
2021/12/05 04:16:27;;;;;;;37.10;21.70;;;;;;;;;;764175;179;918449;-66
2021/12/05 04:18:53;;;;;;;38.10;23.60;;;;;;;;;;773470;180;919783;-66
2021/12/05 04:21:19;;;;;;;34.47;21.30;;;;;;;;;;772644;180;919572;-66
2021/12/05 04:23:45;;;;;;;35.03;21.40;;;;;;;;;;770174;180;919421;-66
2021/12/05 04:26:11;;;;;;;38.27;20.93;;;;;;;;;;777816;180;622193;-67
2021/12/05 04:28:38;;;;;;;35.00;21.07;;;;;;;;;;763783;180;919105;-67
2021/12/05 04:31:03;;;;;;;45.70;26.93;;;;;;;;;;768508;180;919438;-67
2021/12/05 04:33:28;;;;;;;58.00;32.88;;;;;;;;;;775662;180;919249;-65
2021/12/05 04:35:54;;;;;;;70.23;41.10;;;;;;;;;;772446;180;919582;-64
2021/12/05 04:38:20;;;;;;;40.75;25.48;;;;;;;;;;770945;180;919078;-65
2021/12/05 04:40:48;;;;;;;32.77;20.30;;;;;;;;;;771441;180;919464;-65
2021/12/05 04:43:13;;;;;;;31.70;17.97;;;;;;;;;;774820;180;635108;-65
2021/12/05 04:45:39;;;;;;;20.63;13.60;;;;;;;;;;771384;180;616296;-66
2021/12/05 04:48:05;;;;;;;17.77;11.20;;;;;;;;;;773200;180;874802;-65
2021/12/05 04:50:31;;;;;;;13.10;9.80;;;;;;;;;;774915;180;919494;-65
2021/12/05 04:52:57;;;;;;;16.37;10.93;;;;;;;;;;770468;179;918703;-66
2021/12/05 04:55:23;;;;;;;16.33;10.60;;;;;;;;;;762689;179;918853;-66
2021/12/05 04:57:48;;;;;;;14.60;10.80;;;;;;;;;;771978;180;919006;-66
2021/12/05 05:00:15;;;;;;;14.03;9.47;;;;;;;;;;765077;180;919626;-66
2021/12/05 05:02:41;;;;;;;12.70;9.33;;;;;;;;;;770431;180;918987;-65
2021/12/05 05:05:07;;;;;;;12.23;9.90;;;;;;;;;;770282;179;919376;-66
2021/12/05 05:07:33;;;;;;;13.40;9.60;;;;;;;;;;774663;179;919868;-67
2021/12/05 05:09:59;;;;;;;15.20;9.67;;;;;;;;;;769345;179;919329;-67
2021/12/05 05:12:25;;;;;;;14.10;9.63;;;;;;;;;;770384;180;918910;-66
2021/12/05 05:14:52;;;;;;;14.13;8.70;;;;;;;;;;771060;180;918536;-66
2021/12/05 05:17:16;;;;;;;10.73;7.97;;;;;;;;;;771789;180;919496;-66
2021/12/05 05:19:49;;;;;;;11.20;8.77;;;;;;;;;;768834;180;919252;-67
2021/12/05 05:22:24;;;;;;;12.27;7.90;;;;;;;;;;775633;180;919137;-67
2021/12/05 05:25:32;;;;;;;12.95;8.18;;;;;;;;;;773543;179;928900;-67
2021/12/05 05:27:34;;;;;;;13.47;9.87;;;;;;;;;;764554;180;928550;-66
2021/12/05 05:29:55;;;;;;;13.27;8.70;;;;;;;;;;764028;180;919378;-66
2021/12/05 05:40:12;;;;;;;14.77;9.73;;;;;;;;;;764898;181;919511;-67
2021/12/05 05:43:39;;;;;;;12.50;8.53;;;;;;;;;;767981;180;919372;-66
2021/12/05 05:47:40;;;;;;;10.93;8.37;;;;;;;;;;771057;180;920616;-67
2021/12/05 05:50:03;;;;;;;14.40;10.00;;;;;;;;;;774528;180;938133;-69
2021/12/05 05:52:28;;;;;;;11.03;8.10;;;;;;;;;;771261;180;920513;-67
2021/12/05 05:54:56;;;;;;;14.02;9.15;;;;;;;;;;772275;180;1019328;-69
2021/12/05 05:57:29;;;;;;;13.20;8.70;;;;;;;;;;769833;180;916557;-68
2021/12/05 06:00:12;;;;;;;13.40;9.10;;;;;;;;;;773749;180;917927;-68
2021/12/05 06:05:05;;;;;;;10.80;8.30;;;;;;;;;;762253;181;919039;-68
2021/12/05 06:07:33;;;;;;;13.77;9.57;;;;;;;;;;767190;180;919348;-68
2021/12/05 06:09:57;;;;;;;11.97;8.27;;;;;;;;;;769584;180;919472;-68
2021/12/05 06:12:23;;;;;;;10.80;8.07;;;;;;;;;;770475;180;919244;-68
2021/12/05 06:14:49;;;;;;;13.27;8.90;;;;;;;;;;766056;180;919476;-68
2021/12/05 06:17:17;;;;;;;11.57;8.97;;;;;;;;;;767700;181;919131;-68
2021/12/05 06:19:40;;;;;;;11.33;8.57;;;;;;;;;;777789;178;919351;-68
2021/12/05 06:22:06;;;;;;;11.53;7.93;;;;;;;;;;772407;180;919596;-68
2021/12/05 06:24:32;;;;;;;14.00;8.97;;;;;;;;;;766866;180;919592;-69
2021/12/05 06:26:59;;;;;;;11.77;8.07;;;;;;;;;;776409;180;919672;-69
2021/12/05 06:29:26;;;;;;;15.37;9.40;;;;;;;;;;769076;180;919701;-68
2021/12/05 06:31:59;;;;;;;10.40;8.00;;;;;;;;;;766725;180;918093;-69
2021/12/05 06:37:09;;;;;;;11.05;7.40;;;;;;;;;;773131;180;919760;-68
2021/12/05 06:39:27;;;;;;;11.47;8.33;;;;;;;;;;771695;180;918921;-69
2021/12/05 06:41:59;;;;;;;13.75;10.73;;;;;;;;;;765869;179;920136;-69
2021/12/05 06:46:50;;;;;;;17.10;10.00;;;;;;;;;;772110;180;916830;-69
2021/12/05 06:49:16;;;;;;;14.23;10.30;;;;;;;;;;766624;180;915980;-69
2021/12/05 06:51:41;;;;;;;12.40;8.70;;;;;;;;;;768562;180;919118;-69
2021/12/05 06:54:08;;;;;;;10.70;9.00;;;;;;;;;;766896;180;918920;-68
2021/12/05 06:56:33;;;;;;;13.10;9.53;;;;;;;;;;766466;180;1020711;-69
2021/12/05 06:58:59;;;;;;;10.03;7.90;;;;;;;;;;765872;181;919373;-69
2021/12/05 07:01:25;;;;;;;10.85;8.48;;;;;;;;;;769181;180;920482;-69
2021/12/05 07:03:51;;;;;;;9.50;7.53;;;;;;;;;;775216;180;919062;-69
2021/12/05 07:06:24;;;;;;;10.30;8.00;;;;;;;;;;770037;180;996407;-69
2021/12/05 07:08:47;;;;;;;12.67;9.03;;;;;;;;;;766607;180;1021235;-69
2021/12/05 07:11:21;;;;;;;10.47;8.00;;;;;;;;;;771788;180;919263;-69
2021/12/05 07:14:16;;;;;;;8.80;6.70;;;;;;;;;;755908;180;921171;-69
2021/12/05 07:19:10;;;;;;;11.20;7.30;;;;;;;;;;762140;181;920394;-69
2021/12/05 07:21:33;;;;;;;12.50;7.60;;;;;;;;;;762292;181;920721;-69
2021/12/05 07:26:52;;;;;;;8.70;6.50;;;;;;;;;;765420;180;931092;-69
2021/12/05 07:41:52;;;;;;;9.93;6.97;;;;;;;;;;768674;182;1023701;-70
2021/12/05 07:44:12;;;;;;;10.97;8.00;;;;;;;;;;768251;179;919794;-70
2021/12/05 07:46:38;;;;;;;10.75;7.95;;;;;;;;;;765922;180;920068;-70
2021/12/05 07:49:07;;;;;;;11.17;7.97;;;;;;;;;;772807;180;928282;-70
2021/12/05 07:51:31;;;;;;;10.40;8.30;;;;;;;;;;768886;180;1021088;-71
2021/12/05 07:59:18;;;;;;;12.10;9.87;;;;;;;;;;767000;180;918931;-70
2021/12/05 08:16:49;;;;;;;12.10;9.70;;;;;;;;;;769463;180;918777;-71
2021/12/05 08:19:11;;;;;;;13.83;9.97;;;;;;;;;;771002;180;918921;-70
2021/12/05 08:21:37;;;;;;;15.23;10.27;;;;;;;;;;771738;180;917494;-70
2021/12/05 08:24:03;;;;;;;14.17;9.50;;;;;;;;;;776765;180;920027;-71
2021/12/05 08:26:33;;;;;;;13.17;9.13;;;;;;;;;;767545;180;919635;-72
2021/12/05 08:29:05;;;;;;;15.20;9.87;;;;;;;;;;766961;180;1011866;-71
2021/12/05 08:31:33;;;;;;;16.40;9.10;;;;;;;;;;774354;180;619852;-72
2021/12/05 08:34:39;;;;;;;14.75;10.88;;;;;;;;;;749721;183;924608;-71
2021/12/05 08:42:00;;;;;;;20.07;12.40;;;;;;;;;;749663;184;636590;-72
2021/12/05 08:44:46;;;;;;;19.73;12.23;;;;;;;;;;762892;183;656705;-72
2021/12/05 09:23:01;;;;;;;16.52;11.52;;;;;;;;;;757664;180;920104;-74
2021/12/05 09:30:24;;;;;;;17.40;10.10;;;;;;;;;;776650;180;1007489;-74
2021/12/05 09:40:15;;;;;;;15.30;10.50;;;;;;;;;;765576;181;920709;-74
2021/12/05 10:08:25;;;;;;;16.65;12.65;;;;;;;;;;766344;180;918600;-73
2021/12/05 10:10:39;;;;;;;20.07;12.77;;;;;;;;;;768462;183;919069;-75
2021/12/05 10:13:33;;;;;;;19.93;12.43;;;;;;;;;;769984;180;1015069;-75
2021/12/05 10:15:50;;;;;;;17.67;12.80;;;;;;;;;;754176;183;918580;-74
2021/12/05 10:18:44;;;;;;;17.13;12.40;;;;;;;;;;753718;184;927510;-74
2021/12/05 10:26:32;;;;;;;15.07;11.40;;;;;;;;;;766321;180;1020233;-75
2021/12/05 10:34:07;;;;;;;17.40;11.20;;;;;;;;;;776253;179;918393;-73
2021/12/05 10:36:27;;;;;;;15.13;10.70;;;;;;;;;;759155;183;625147;-74
2021/12/05 10:38:52;;;;;;;13.50;10.53;;;;;;;;;;764789;181;918861;-72
2021/12/05 10:41:33;;;;;;;15.17;11.37;;;;;;;;;;770545;181;917477;-70
2021/12/05 10:43:45;;;;;;;16.00;11.70;;;;;;;;;;764987;183;919651;-72
2021/12/05 10:46:11;;;;;;;21.80;13.50;;;;;;;;;;763012;180;1020847;-72
2021/12/05 10:48:37;;;;;;;18.00;12.70;;;;;;;;;;766619;180;911484;-73
2021/12/05 10:51:07;;;;;;;18.60;12.47;;;;;;;;;;775558;180;918644;-72
2021/12/05 10:53:43;;;;;;;20.93;12.87;;;;;;;;;;772125;180;917865;-72
2021/12/05 10:56:10;;;;;;;18.27;12.90;;;;;;;;;;773030;180;919330;-72
2021/12/05 10:58:39;;;;;;;16.77;11.70;;;;;;;;;;772016;180;919294;-71
2021/12/05 11:01:07;;;;;;;19.00;12.77;;;;;;;;;;773948;180;918126;-70
2021/12/05 11:03:33;;;;;;;21.00;14.63;;;;;;;;;;769649;180;919410;-70
2021/12/05 11:05:59;;;;;;;18.90;14.27;;;;;;;;;;770498;179;1020727;-71
2021/12/05 11:08:30;;;;;;;25.00;16.33;;;;;;;;;;771051;179;922563;-70
2021/12/05 11:11:02;;;;;;;27.07;17.60;;;;;;;;;;776552;179;918895;-69
2021/12/05 11:13:28;;;;;;;26.57;16.40;;;;;;;;;;769287;180;1020830;-70
2021/12/05 11:15:54;;;;;;;24.80;15.60;;;;;;;;;;770517;180;919709;-70
2021/12/05 11:18:25;;;;;;;23.33;16.17;;;;;;;;;;766316;180;920205;-68
2021/12/05 11:20:53;;;;;;;23.63;16.07;;;;;;;;;;774854;180;920336;-68
2021/12/05 11:23:17;;;;;;;28.70;18.53;;;;;;;;;;772205;180;919461;-69
2021/12/05 11:25:44;;;;;;;30.70;20.27;;;;;;;;;;772663;180;919198;-69
2021/12/05 11:28:11;;;;;;;33.93;22.47;;;;;;;;;;771460;180;917025;-70
2021/12/05 11:30:35;;;;;;;30.05;19.65;;;;;;;;;;768005;180;918654;-70
2021/12/05 11:33:04;;;;;;;31.33;18.70;;;;;;;;;;770230;180;919018;-70
2021/12/05 11:35:30;;;;;;;32.13;20.33;;;;;;;;;;767985;180;918653;-69
2021/12/05 11:38:09;;;;;;;28.77;19.63;;;;;;;;;;777266;180;919021;-69
2021/12/05 11:40:41;;;;;;;29.87;20.10;;;;;;;;;;774609;180;919531;-71
2021/12/05 11:43:06;;;;;;;29.03;18.90;;;;;;;;;;763579;181;918819;-70
2021/12/05 11:45:32;;;;;;;34.27;19.00;;;;;;;;;;771746;180;667259;-71
2021/12/05 11:47:58;;;;;;;33.57;19.47;;;;;;;;;;774218;180;622658;-72
2021/12/05 11:50:30;;;;;;;39.97;19.80;;;;;;;;;;769473;180;918613;-73
2021/12/05 11:52:55;;;;;;;34.43;18.30;;;;;;;;;;765934;181;918668;-73
2021/12/05 11:55:21;;;;;;;27.23;18.15;;;;;;;;;;764945;180;919043;-74
2021/12/05 11:57:47;;;;;;;25.03;18.20;;;;;;;;;;771017;180;919234;-75
2021/12/05 12:00:14;;;;;;;30.70;18.63;;;;;;;;;;771944;180;919527;-74
2021/12/05 12:02:40;;;;;;;28.50;17.77;;;;;;;;;;766041;180;919130;-74
2021/12/05 12:05:06;;;;;;;25.80;17.67;;;;;;;;;;774107;180;919415;-74
2021/12/05 12:07:34;;;;;;;24.20;15.70;;;;;;;;;;767639;180;919342;-73
2021/12/05 12:10:01;;;;;;;21.87;14.50;;;;;;;;;;768045;180;919329;-73
2021/12/05 12:12:27;;;;;;;19.83;13.80;;;;;;;;;;767406;180;916700;-72
2021/12/05 12:14:53;;;;;;;19.60;14.18;;;;;;;;;;774623;180;918344;-72
2021/12/05 12:17:19;;;;;;;21.63;13.77;;;;;;;;;;771675;180;919640;-71
2021/12/05 12:19:45;;;;;;;19.85;12.98;;;;;;;;;;770503;180;918455;-72
2021/12/05 12:22:11;;;;;;;21.37;13.50;;;;;;;;;;776370;180;919416;-73
2021/12/05 12:24:37;;;;;;;20.95;13.60;;;;;;;;;;768281;179;919336;-72
2021/12/05 12:27:03;;;;;;;21.07;14.40;;;;;;;;;;767818;180;1083887;-72
2021/12/05 12:29:29;;;;;;;20.47;14.87;;;;;;;;;;769872;180;923681;-72
2021/12/05 12:31:55;;;;;;;26.30;15.43;;;;;;;;;;769400;180;919723;-73
2021/12/05 12:34:21;;;;;;;20.07;13.60;;;;;;;;;;764570;180;917341;-74
2021/12/05 12:36:49;;;;;;;27.70;15.70;;;;;;;;;;768400;181;922821;-72
2021/12/05 12:39:30;;;;;;;24.77;15.40;;;;;;;;;;775149;180;919913;-72
2021/12/05 12:42:02;;;;;;;24.57;15.97;;;;;;;;;;771954;180;912689;-73
2021/12/05 12:44:28;;;;;;;26.50;17.67;;;;;;;;;;764010;180;921041;-73
2021/12/05 12:46:55;;;;;;;26.23;16.60;;;;;;;;;;770508;180;918999;-71
2021/12/05 12:49:22;;;;;;;23.23;16.83;;;;;;;;;;766738;180;919026;-73
2021/12/05 12:51:48;;;;;;;28.92;18.25;;;;;;;;;;769920;180;919392;-72
2021/12/05 12:54:15;;;;;;;30.23;19.07;;;;;;;;;;768079;180;917882;-72
2021/12/05 12:56:41;;;;;;;33.20;21.42;;;;;;;;;;767580;180;919227;-73
2021/12/05 12:59:07;;;;;;;28.47;19.63;;;;;;;;;;772643;180;919197;-72
2021/12/05 13:02:02;;;;;;;33.60;22.47;;;;;;;;;;770447;180;925139;-73
2021/12/05 13:05:00;;;;;;;27.83;17.20;;;;;;;;;;768484;180;918697;-70
2021/12/05 13:11:55;;;;;;;33.80;21.03;;;;;;;;;;765636;180;919756;-70
2021/12/05 13:14:20;;;;;;;30.93;21.60;;;;;;;;;;772273;180;917026;-71
2021/12/05 13:16:46;;;;;;;33.20;22.00;;;;;;;;;;767233;180;934476;-70
2021/12/05 13:19:11;;;;;;;29.12;18.73;;;;;;;;;;768095;180;920449;-70
2021/12/05 13:21:39;;;;;;;30.90;19.87;;;;;;;;;;773698;180;930578;-70
2021/12/05 13:24:09;;;;;;;30.00;17.73;;;;;;;;;;768263;180;929277;-71
2021/12/05 13:26:39;;;;;;;24.20;16.30;;;;;;;;;;765956;180;920816;-70
2021/12/05 13:29:10;;;;;;;25.03;15.47;;;;;;;;;;769994;180;928249;-70
2021/12/05 13:31:37;;;;;;;27.33;17.67;;;;;;;;;;777023;180;922017;-70
2021/12/05 13:34:08;;;;;;;36.07;21.57;;;;;;;;;;773309;180;917581;-68
2021/12/05 13:36:34;;;;;;;39.03;21.60;;;;;;;;;;769271;179;1019639;-70
2021/12/05 13:39:00;;;;;;;30.17;20.73;;;;;;;;;;767638;180;915371;-70
2021/12/05 13:41:27;;;;;;;29.20;19.30;;;;;;;;;;773327;180;914670;-70
2021/12/05 13:43:54;;;;;;;32.30;19.50;;;;;;;;;;769494;180;827615;-68
2021/12/05 13:46:26;;;;;;;33.13;21.73;;;;;;;;;;769848;177;906324;-70
2021/12/05 13:48:52;;;;;;;34.47;21.37;;;;;;;;;;770008;180;937488;-70
2021/12/05 13:51:26;;;;;;;33.87;21.60;;;;;;;;;;775316;180;918398;-71
2021/12/05 13:53:51;;;;;;;32.70;20.40;;;;;;;;;;772496;180;919063;-71
2021/12/05 13:56:21;;;;;;;39.33;23.80;;;;;;;;;;767807;180;919887;-71
2021/12/05 13:58:45;;;;;;;39.60;25.90;;;;;;;;;;768970;180;918859;-67
2021/12/05 14:01:15;;;;;;;42.63;25.47;;;;;;;;;;769699;180;918537;-70
2021/12/05 14:03:47;;;;;;;38.33;24.60;;;;;;;;;;762671;180;928934;-71
2021/12/05 14:06:19;;;;;;;41.43;25.10;;;;;;;;;;766855;180;924739;-71
2021/12/05 14:08:44;;;;;;;40.90;26.00;;;;;;;;;;767687;180;918862;-70
2021/12/05 14:11:10;;;;;;;38.23;25.13;;;;;;;;;;774378;181;918908;-72
2021/12/05 14:13:36;;;;;;;35.47;22.27;;;;;;;;;;768750;180;919038;-70
2021/12/05 14:16:02;;;;;;;35.37;21.03;;;;;;;;;;769620;180;919113;-69
2021/12/05 14:18:28;;;;;;;31.77;19.60;;;;;;;;;;773064;180;918751;-70
2021/12/05 14:20:54;;;;;;;31.93;21.77;;;;;;;;;;768915;180;918732;-70
2021/12/05 14:23:19;;;;;;;30.80;19.00;;;;;;;;;;767256;181;920690;-70
2021/12/05 14:25:47;;;;;;;36.05;19.75;;;;;;;;;;772402;181;921524;-68
2021/12/05 14:28:12;;;;;;;33.93;17.50;;;;;;;;;;767369;182;918723;-71
2021/12/05 14:30:38;;;;;;;26.50;17.83;;;;;;;;;;770230;179;919337;-69
2021/12/05 14:33:04;;;;;;;21.07;15.17;;;;;;;;;;766326;180;927302;-70
2021/12/05 14:35:30;;;;;;;24.20;17.33;;;;;;;;;;775571;180;918312;-70
2021/12/05 14:37:56;;;;;;;24.53;17.93;;;;;;;;;;768683;180;919317;-69
2021/12/05 14:40:27;;;;;;;37.37;21.20;;;;;;;;;;769115;179;916415;-69
2021/12/05 14:42:49;;;;;;;30.00;20.60;;;;;;;;;;778611;179;1015771;-70
2021/12/05 14:45:18;;;;;;;28.83;18.90;;;;;;;;;;766188;179;918928;-69
2021/12/05 14:47:43;;;;;;;31.07;20.47;;;;;;;;;;769745;179;1021596;-70
2021/12/05 14:50:11;;;;;;;30.70;17.63;;;;;;;;;;769367;180;919678;-70
2021/12/05 14:52:37;;;;;;;33.40;19.40;;;;;;;;;;775707;180;919103;-71
2021/12/05 14:55:03;;;;;;;27.50;18.60;;;;;;;;;;769052;180;919468;-69
2021/12/05 14:57:29;;;;;;;22.73;15.53;;;;;;;;;;771463;180;918669;-69
2021/12/05 14:59:58;;;;;;;22.20;15.67;;;;;;;;;;774585;179;918235;-71
2021/12/05 15:02:24;;;;;;;24.40;18.13;;;;;;;;;;767275;180;916988;-71
2021/12/05 15:04:50;;;;;;;23.33;17.63;;;;;;;;;;769262;180;919012;-70
2021/12/05 15:07:16;;;;;;;23.57;16.50;;;;;;;;;;769438;180;918932;-71
2021/12/05 15:09:43;;;;;;;24.63;16.90;;;;;;;;;;766252;182;917947;-71
2021/12/05 15:12:09;;;;;;;27.27;18.50;;;;;;;;;;767710;180;931602;-70
2021/12/05 15:14:35;;;;;;;29.50;22.65;;;;;;;;;;767455;180;1015289;-71
2021/12/05 15:17:03;;;;;;;37.70;23.83;;;;;;;;;;777092;180;916840;-70
2021/12/05 15:19:29;;;;;;;47.40;30.80;;;;;;;;;;771567;180;916217;-71
2021/12/05 15:21:55;;;;;;;38.60;27.30;;;;;;;;;;768992;180;918762;-70
2021/12/05 15:24:21;;;;;;;43.70;26.08;;;;;;;;;;771476;180;920780;-69
2021/12/05 15:26:46;;;;;;;39.17;24.30;;;;;;;;;;754778;183;918252;-69
2021/12/05 15:29:12;;;;;;;34.20;21.90;;;;;;;;;;756135;183;917127;-68
2021/12/05 15:31:38;;;;;;;33.70;21.23;;;;;;;;;;744908;185;919510;-69
2021/12/05 15:34:10;;;;;;;25.50;17.40;;;;;;;;;;747895;185;918665;-68
2021/12/05 15:36:36;;;;;;;28.73;20.58;;;;;;;;;;745057;185;918628;-70
2021/12/05 15:39:07;;;;;;;26.97;18.87;;;;;;;;;;752476;183;921545;-69
2021/12/05 15:41:33;;;;;;;29.40;18.10;;;;;;;;;;770340;180;919014;-71
2021/12/05 15:43:59;;;;;;;28.43;18.80;;;;;;;;;;774237;180;919371;-69
2021/12/05 15:46:25;;;;;;;25.93;18.53;;;;;;;;;;767704;180;918920;-68
2021/12/05 15:48:52;;;;;;;31.02;20.52;;;;;;;;;;768624;180;919771;-69
2021/12/05 15:51:17;;;;;;;36.87;22.50;;;;;;;;;;768997;180;919733;-69
2021/12/05 15:53:42;;;;;;;32.47;23.17;;;;;;;;;;770176;179;1022396;-69
2021/12/05 15:56:09;;;;;;;31.92;21.27;;;;;;;;;;770499;180;918318;-68
2021/12/05 15:58:38;;;;;;;30.40;20.67;;;;;;;;;;772581;180;918804;-69
2021/12/05 16:01:09;;;;;;;27.93;18.97;;;;;;;;;;769493;182;918924;-69
2021/12/05 16:03:34;;;;;;;26.47;18.57;;;;;;;;;;768893;179;918601;-70
2021/12/05 16:06:00;;;;;;;31.90;20.37;;;;;;;;;;766728;181;921136;-69
2021/12/05 16:08:27;;;;;;;28.40;20.20;;;;;;;;;;774963;180;919255;-66
2021/12/05 16:10:57;;;;;;;26.50;18.47;;;;;;;;;;769193;180;933390;-70
2021/12/05 16:13:19;;;;;;;30.10;19.47;;;;;;;;;;771416;180;917983;-70
2021/12/05 16:15:45;;;;;;;27.03;19.77;;;;;;;;;;768862;180;919295;-69
2021/12/05 16:18:11;;;;;;;32.05;19.77;;;;;;;;;;766839;183;918119;-70
2021/12/05 16:20:40;;;;;;;32.57;18.37;;;;;;;;;;768603;179;919285;-70
2021/12/05 16:23:05;;;;;;;37.05;23.75;;;;;;;;;;767001;180;1021952;-70
2021/12/05 16:25:30;;;;;;;41.70;25.77;;;;;;;;;;774684;180;917023;-68
2021/12/05 16:27:56;;;;;;;44.97;27.00;;;;;;;;;;769212;180;1001453;-70
2021/12/05 16:30:23;;;;;;;48.00;31.10;;;;;;;;;;770165;179;971737;-68
2021/12/05 16:32:49;;;;;;;60.93;33.90;;;;;;;;;;770331;181;921809;-69
2021/12/05 16:35:20;;;;;;;60.53;35.87;;;;;;;;;;766973;180;1019749;-69
2021/12/05 16:37:46;;;;;;;69.57;37.10;;;;;;;;;;771401;180;919801;-70
2021/12/05 16:40:12;;;;;;;55.72;35.10;;;;;;;;;;763920;180;947589;-69
2021/12/05 16:42:38;;;;;;;52.20;32.70;;;;;;;;;;774736;180;915570;-68
2021/12/05 16:45:04;;;;;;;48.40;28.80;;;;;;;;;;766959;180;916756;-68
2021/12/05 16:47:30;;;;;;;46.10;30.70;;;;;;;;;;767063;180;923199;-72
2021/12/05 16:49:56;;;;;;;50.42;31.08;;;;;;;;;;772884;180;917636;-70
2021/12/05 16:52:24;;;;;;;52.40;31.30;;;;;;;;;;768482;180;918886;-69
2021/12/05 16:54:50;;;;;;;40.40;23.60;;;;;;;;;;768592;180;919860;-69
2021/12/05 16:57:17;;;;;;;38.10;23.93;;;;;;;;;;768799;180;919296;-68
2021/12/05 16:59:41;;;;;;;46.03;26.63;;;;;;;;;;775230;180;919212;-69
2021/12/05 17:02:08;;;;;;;45.03;29.47;;;;;;;;;;763751;180;919315;-69
2021/12/05 17:04:43;;;;;;;45.50;28.13;;;;;;;;;;766836;180;920003;-69
2021/12/05 17:07:08;;;;;;;46.00;29.97;;;;;;;;;;772573;180;918340;-68
2021/12/05 17:09:31;;;;;;;48.45;30.02;;;;;;;;;;770090;179;919419;-68
2021/12/05 17:11:57;;;;;;;48.07;29.57;;;;;;;;;;769524;180;921670;-70
2021/12/05 17:14:23;;;;;;;45.37;27.50;;;;;;;;;;771457;180;917691;-69
2021/12/05 17:16:49;;;;;;;43.67;27.30;;;;;;;;;;772638;180;911765;-69
2021/12/05 17:19:18;;;;;;;46.10;28.53;;;;;;;;;;766755;179;915665;-70
2021/12/05 17:21:41;;;;;;;44.70;27.20;;;;;;;;;;767631;180;925609;-69
2021/12/05 17:24:08;;;;;;;48.70;26.27;;;;;;;;;;771174;181;912040;-70
2021/12/05 17:26:34;;;;;;;41.50;23.73;;;;;;;;;;770120;179;913227;-67
2021/12/05 17:29:05;;;;;;;38.90;23.33;;;;;;;;;;767127;180;920644;-70
2021/12/05 17:31:31;;;;;;;48.10;27.17;;;;;;;;;;765762;180;910465;-71
2021/12/05 17:33:57;;;;;;;48.63;30.75;;;;;;;;;;774426;180;913428;-69
2021/12/05 17:36:23;;;;;;;54.40;32.73;;;;;;;;;;769897;180;919056;-70
2021/12/05 17:38:48;;;;;;;51.67;31.27;;;;;;;;;;767365;180;917856;-70
2021/12/05 17:41:14;;;;;;;49.63;31.43;;;;;;;;;;774366;180;924487;-70
2021/12/05 17:43:40;;;;;;;42.17;28.47;;;;;;;;;;768206;180;919462;-70
2021/12/05 17:46:06;;;;;;;42.07;25.47;;;;;;;;;;766879;180;910332;-70
2021/12/05 17:48:33;;;;;;;39.70;24.53;;;;;;;;;;774479;180;919338;-70
2021/12/05 17:51:03;;;;;;;46.00;27.20;;;;;;;;;;769162;180;919272;-71
2021/12/05 17:53:29;;;;;;;46.67;27.65;;;;;;;;;;766590;180;915766;-70